createdAt,value
2018-12-31T00:02:43.033Z,9.40
2018-12-31T00:06:11.844Z,9.50
2018-12-31T00:09:15.453Z,7.87
2018-12-31T00:12:19.065Z,8.63
2018-12-31T00:15:24.985Z,9.40
2018-12-31T00:18:28.628Z,9.73
2018-12-31T00:21:32.238Z,8.53
2018-12-31T00:24:35.847Z,7.40
2018-12-31T00:27:39.469Z,8.53
2018-12-31T00:30:52.213Z,8.37
2018-12-31T00:33:55.818Z,7.17
2018-12-31T00:36:59.739Z,8.77
2018-12-31T00:40:03.390Z,8.93
2018-12-31T00:43:07.249Z,5.40
2018-12-31T00:46:11.115Z,8.23
2018-12-31T00:50:09.697Z,9.60
2018-12-31T00:53:13.410Z,8.00
2018-12-31T00:56:17.274Z,6.67
2018-12-31T00:59:20.903Z,9.93
2018-12-31T01:02:25.766Z,4.37
2018-12-31T01:05:29.677Z,5.80
2018-12-31T01:08:33.398Z,7.40
2018-12-31T01:12:00.256Z,6.43
2018-12-31T01:15:04.315Z,8.33
2018-12-31T01:18:07.974Z,6.03
2018-12-31T01:21:12.444Z,7.60
2018-12-31T01:24:16.860Z,12.40
2018-12-31T01:27:20.768Z,4.07
2018-12-31T01:30:24.612Z,6.20
2018-12-31T01:33:28.508Z,6.20
2018-12-31T01:36:32.600Z,5.43
2018-12-31T01:39:55.270Z,6.67
2018-12-31T01:42:59.359Z,6.70
2018-12-31T01:46:21.759Z,8.70
2018-12-31T01:49:25.679Z,8.73
2018-12-31T01:52:29.271Z,5.13
2018-12-31T01:55:32.970Z,4.53
2018-12-31T01:58:36.818Z,6.63
2018-12-31T02:01:40.675Z,5.27
2018-12-31T02:04:44.512Z,4.97
2018-12-31T02:07:48.139Z,5.67
2018-12-31T02:10:52.095Z,5.47
2018-12-31T02:13:55.690Z,8.20
2018-12-31T02:16:59.336Z,5.40
2018-12-31T02:20:03.235Z,5.27
2018-12-31T02:23:25.598Z,5.57
2018-12-31T02:26:29.308Z,5.90
2018-12-31T02:29:33.206Z,7.17
2018-12-31T02:32:36.850Z,4.17
2018-12-31T02:35:46.864Z,7.47
2018-12-31T02:38:50.463Z,5.43
2018-12-31T02:41:54.093Z,4.10
2018-12-31T02:45:03.946Z,5.17
2018-12-31T02:48:07.556Z,7.23
2018-12-31T02:51:26.335Z,4.50
2018-12-31T02:54:30.218Z,5.97
2018-12-31T02:57:33.823Z,5.87
2018-12-31T03:00:37.429Z,5.97
2018-12-31T03:03:41.306Z,4.93
2018-12-31T03:06:45.471Z,6.37
2018-12-31T03:09:49.298Z,4.57
2018-12-31T03:12:53.175Z,5.30
2018-12-31T03:15:56.783Z,4.60
2018-12-31T03:19:00.399Z,6.70
2018-12-31T03:22:04.042Z,6.17
2018-12-31T03:25:07.748Z,6.73
2018-12-31T03:28:11.924Z,6.60
2018-12-31T03:31:15.543Z,4.37
2018-12-31T03:34:19.392Z,6.93
2018-12-31T03:37:23.024Z,5.27
2018-12-31T03:40:26.660Z,5.60
2018-12-31T03:43:30.288Z,7.20
2018-12-31T03:46:33.974Z,5.30
2018-12-31T03:49:38.101Z,4.43
2018-12-31T03:52:41.993Z,4.40
2018-12-31T03:55:45.618Z,5.23
2018-12-31T03:58:49.225Z,5.50
2018-12-31T04:01:52.854Z,5.13
2018-12-31T04:04:56.783Z,5.93
2018-12-31T04:08:00.621Z,3.87
2018-12-31T04:11:04.490Z,5.17
2018-12-31T04:14:08.105Z,5.47
2018-12-31T04:17:11.715Z,5.33
2018-12-31T04:20:15.401Z,4.97
2018-12-31T04:23:18.998Z,5.17
2018-12-31T04:26:22.613Z,5.60
2018-12-31T04:29:26.744Z,4.07
2018-12-31T04:32:30.610Z,5.47
2018-12-31T04:35:34.223Z,3.63
2018-12-31T04:38:37.876Z,4.27
2018-12-31T04:41:41.453Z,5.00
2018-12-31T04:44:45.296Z,5.30
2018-12-31T04:47:49.180Z,4.17
2018-12-31T04:50:53.036Z,6.53
2018-12-31T04:53:56.881Z,3.80
2018-12-31T04:57:00.526Z,4.93
2018-12-31T05:00:04.192Z,4.20
2018-12-31T05:03:08.041Z,5.00
2018-12-31T05:06:11.683Z,4.33
2018-12-31T05:09:15.273Z,3.93
2018-12-31T05:12:18.888Z,3.17
2018-12-31T05:15:22.554Z,3.47
2018-12-31T05:18:26.490Z,3.27
2018-12-31T05:21:30.419Z,4.23
2018-12-31T05:24:34.556Z,4.27
2018-12-31T05:27:38.428Z,4.10
2018-12-31T05:30:42.297Z,4.17
2018-12-31T05:33:46.010Z,4.50
2018-12-31T05:36:49.618Z,3.93
2018-12-31T05:39:53.213Z,4.53
2018-12-31T05:42:56.843Z,3.73
2018-12-31T05:46:00.450Z,3.97
2018-12-31T05:49:04.300Z,3.53
2018-12-31T05:52:07.919Z,4.43
2018-12-31T05:55:12.260Z,3.37
2018-12-31T05:58:16.381Z,3.33
2018-12-31T06:01:20.272Z,4.70
2018-12-31T06:04:23.873Z,4.20
2018-12-31T06:07:27.502Z,3.70
2018-12-31T06:10:31.338Z,3.73
2018-12-31T06:13:35.512Z,3.47
2018-12-31T06:16:39.130Z,5.67
2018-12-31T06:19:42.741Z,4.80
2018-12-31T06:22:46.843Z,5.53
2018-12-31T06:25:50.723Z,4.63
2018-12-31T06:28:54.468Z,4.40
2018-12-31T06:31:58.327Z,4.67
2018-12-31T06:35:02.195Z,5.00
2018-12-31T06:38:05.791Z,4.00
2018-12-31T06:41:09.416Z,4.27
2018-12-31T06:44:13.015Z,4.83
2018-12-31T06:47:17.374Z,4.23
2018-12-31T06:50:21.241Z,4.63
2018-12-31T06:53:25.150Z,4.40
2018-12-31T06:56:28.781Z,4.43
2018-12-31T06:59:32.642Z,3.97
2018-12-31T07:02:36.247Z,3.53
2018-12-31T07:05:39.864Z,4.37
2018-12-31T07:08:43.467Z,4.20
2018-12-31T07:11:47.312Z,4.30
2018-12-31T07:14:51.181Z,3.87
2018-12-31T07:17:54.843Z,4.63
2018-12-31T07:20:58.502Z,4.10
2018-12-31T07:24:02.395Z,4.40
2018-12-31T07:27:09.564Z,4.80
2018-12-31T07:30:13.278Z,7.50
2018-12-31T07:33:17.135Z,4.37
2018-12-31T07:36:21.018Z,4.40
2018-12-31T07:39:24.658Z,3.93
2018-12-31T07:42:28.620Z,4.17
2018-12-31T07:45:32.495Z,5.40
2018-12-31T07:48:36.389Z,6.33
2018-12-31T07:51:40.502Z,3.70
2018-12-31T07:54:45.166Z,5.13
2018-12-31T07:57:49.035Z,4.20
2018-12-31T08:00:52.705Z,6.40
2018-12-31T08:03:56.322Z,4.20
2018-12-31T08:06:59.980Z,5.80
2018-12-31T08:10:03.960Z,5.03
2018-12-31T08:13:07.985Z,4.90
2018-12-31T08:16:11.643Z,4.90
2018-12-31T08:19:15.508Z,3.50
2018-12-31T08:22:19.184Z,4.60
2018-12-31T08:25:22.846Z,6.63
2018-12-31T08:28:26.517Z,5.33
2018-12-31T08:31:30.178Z,6.73
2018-12-31T08:34:34.086Z,3.30
2018-12-31T08:37:37.719Z,4.10
2018-12-31T08:40:41.614Z,6.20
2018-12-31T08:43:45.569Z,4.17
2018-12-31T08:46:49.343Z,4.53
2018-12-31T08:49:53.502Z,5.57
2018-12-31T08:52:57.167Z,7.53
2018-12-31T08:56:01.108Z,8.37
2018-12-31T08:59:04.820Z,9.17
2018-12-31T09:02:08.459Z,7.70
2018-12-31T09:05:12.094Z,11.23
2018-12-31T09:08:15.768Z,10.73
2018-12-31T09:11:19.524Z,12.33
2018-12-31T09:14:23.425Z,11.40
2018-12-31T09:17:27.329Z,15.03
2018-12-31T09:20:30.971Z,15.40
2018-12-31T09:23:34.877Z,16.53
2018-12-31T09:26:39.269Z,14.77
2018-12-31T09:29:42.911Z,18.27
2018-12-31T09:32:46.632Z,19.40
2018-12-31T09:35:56.442Z,15.23
2018-12-31T09:39:00.139Z,22.87
2018-12-31T09:42:03.787Z,22.73
2018-12-31T09:45:12.632Z,19.93
2018-12-31T09:48:16.670Z,38.90
2018-12-31T09:51:20.654Z,23.30
2018-12-31T09:54:24.295Z,27.53
2018-12-31T09:57:27.972Z,24.30
2018-12-31T10:00:34.029Z,24.00
2018-12-31T10:03:37.658Z,20.70
2018-12-31T10:06:41.441Z,27.50
2018-12-31T10:09:45.336Z,27.50
2018-12-31T10:12:49.255Z,25.70
2018-12-31T10:15:53.093Z,25.77
2018-12-31T10:18:57.027Z,22.80
2018-12-31T10:22:00.670Z,24.30
2018-12-31T10:25:04.377Z,22.50
2018-12-31T10:28:07.999Z,20.73
2018-12-31T10:31:11.908Z,22.57
2018-12-31T10:34:16.038Z,20.20
2018-12-31T10:37:20.009Z,22.03
2018-12-31T10:40:23.641Z,16.27
2018-12-31T10:43:27.586Z,18.63
2018-12-31T10:46:32.275Z,20.80
2018-12-31T10:49:35.958Z,21.50
2018-12-31T10:52:39.550Z,17.20
2018-12-31T10:55:43.439Z,20.43
2018-12-31T10:58:47.068Z,14.63
2018-12-31T11:01:50.769Z,16.27
2018-12-31T11:04:54.642Z,19.97
2018-12-31T11:07:58.520Z,16.47
2018-12-31T11:11:02.901Z,15.43
2018-12-31T11:14:06.511Z,16.77
2018-12-31T11:17:11.510Z,17.10
2018-12-31T11:20:15.456Z,20.30
2018-12-31T11:23:19.326Z,15.77
2018-12-31T11:26:23.453Z,14.90
2018-12-31T11:29:27.088Z,13.73
2018-12-31T11:32:30.712Z,14.80
2018-12-31T11:35:34.374Z,15.47
2018-12-31T11:38:38.220Z,12.20
2018-12-31T11:41:42.356Z,13.43
2018-12-31T11:44:46.083Z,12.17
2018-12-31T11:47:50.059Z,11.63
2018-12-31T11:50:53.687Z,14.93
2018-12-31T11:53:57.339Z,18.73
2018-12-31T11:57:06.350Z,12.90
2018-12-31T12:00:12.528Z,13.37
2018-12-31T12:03:16.241Z,14.87
2018-12-31T12:06:25.649Z,12.20
2018-12-31T12:09:29.702Z,13.53
2018-12-31T12:12:33.993Z,11.77
2018-12-31T12:15:39.112Z,13.03
2018-12-31T12:23:12.690Z,13.83
2018-12-31T12:26:16.797Z,12.13
2018-12-31T12:29:31.874Z,9.80
2018-12-31T12:32:36.781Z,12.07
2018-12-31T12:35:50.327Z,10.40
2018-12-31T12:39:02.644Z,13.73
2018-12-31T12:42:13.649Z,17.83
2018-12-31T12:45:18.083Z,29.67
2018-12-31T12:48:21.726Z,38.90
2018-12-31T12:51:26.795Z,34.37
2018-12-31T12:54:30.557Z,24.00
2018-12-31T12:57:59.824Z,26.67
2018-12-31T13:01:03.751Z,28.50
2018-12-31T13:04:18.673Z,35.07
2018-12-31T13:07:22.626Z,30.33
2018-12-31T13:10:26.851Z,29.50
2018-12-31T13:13:30.682Z,34.40
2018-12-31T13:16:34.329Z,37.47
2018-12-31T13:19:38.067Z,38.87
2018-12-31T13:22:41.763Z,38.50
2018-12-31T13:25:48.351Z,37.43
2018-12-31T13:28:52.057Z,38.97
2018-12-31T13:31:56.162Z,34.87
2018-12-31T13:34:59.813Z,33.57
2018-12-31T13:38:03.903Z,40.40
2018-12-31T13:41:07.977Z,37.03
2018-12-31T13:44:11.899Z,31.87
2018-12-31T13:47:15.681Z,33.53
2018-12-31T13:50:19.540Z,30.17
2018-12-31T13:53:23.759Z,30.57
2018-12-31T13:56:27.479Z,27.40
2018-12-31T13:59:31.525Z,27.73
2018-12-31T14:02:35.436Z,28.03
2018-12-31T14:05:39.491Z,27.70
2018-12-31T14:08:43.486Z,24.30
2018-12-31T14:11:47.393Z,22.90
2018-12-31T14:14:51.029Z,21.90
2018-12-31T14:17:54.846Z,21.53
2018-12-31T14:20:59.226Z,22.03
2018-12-31T14:24:04.000Z,19.60
2018-12-31T14:27:08.522Z,22.27
2018-12-31T14:30:12.152Z,17.70
2018-12-31T14:33:16.610Z,18.87
2018-12-31T14:36:20.715Z,17.70
2018-12-31T14:39:24.432Z,17.13
2018-12-31T14:42:28.138Z,16.73
2018-12-31T14:45:32.456Z,16.73
2018-12-31T14:48:36.637Z,15.87
2018-12-31T14:51:40.692Z,14.70
2018-12-31T14:54:44.859Z,21.67
2018-12-31T14:57:48.538Z,18.43
2018-12-31T15:00:52.692Z,15.63
2018-12-31T15:03:57.956Z,15.33
2018-12-31T15:07:01.600Z,15.00
2018-12-31T15:10:06.211Z,13.73
2018-12-31T15:13:09.948Z,13.83
2018-12-31T15:16:14.127Z,15.27
2018-12-31T15:19:18.076Z,13.47
2018-12-31T15:22:28.881Z,11.77
2018-12-31T15:25:27.109Z,13.57
2018-12-31T15:28:31.049Z,12.00
2018-12-31T15:31:34.719Z,14.33
2018-12-31T15:34:38.622Z,12.03
2018-12-31T15:37:42.270Z,11.67
2018-12-31T15:40:46.225Z,12.13
2018-12-31T15:43:49.854Z,9.37
2018-12-31T15:46:54.242Z,10.93
2018-12-31T15:49:57.995Z,11.00
2018-12-31T15:53:01.645Z,9.43
2018-12-31T15:56:05.342Z,10.00
2018-12-31T15:59:09.309Z,11.27
2018-12-31T16:02:13.271Z,9.23
2018-12-31T16:05:16.937Z,10.53
2018-12-31T16:08:20.871Z,10.07
2018-12-31T16:11:24.757Z,11.30
2018-12-31T16:14:29.148Z,10.57
2018-12-31T16:17:33.315Z,7.57
2018-12-31T16:20:37.003Z,8.23
2018-12-31T16:23:41.385Z,9.07
2018-12-31T16:26:45.419Z,9.20
2018-12-31T16:29:49.172Z,9.77
2018-12-31T16:32:52.860Z,10.10
2018-12-31T16:35:56.823Z,9.53
2018-12-31T16:39:00.727Z,8.57
2018-12-31T16:42:04.721Z,8.30
2018-12-31T16:45:09.052Z,8.03
2018-12-31T16:48:12.777Z,8.77
2018-12-31T16:51:16.419Z,8.40
2018-12-31T16:54:20.426Z,9.50
2018-12-31T16:57:24.261Z,8.93
2018-12-31T17:00:28.264Z,9.20
2018-12-31T17:03:32.151Z,7.20
2018-12-31T17:06:35.892Z,6.97
2018-12-31T17:09:39.995Z,6.83
2018-12-31T17:12:43.632Z,7.13
2018-12-31T17:15:47.258Z,7.33
2018-12-31T17:18:51.169Z,7.00
2018-12-31T17:21:54.823Z,8.50
2018-12-31T17:24:58.715Z,7.60
2018-12-31T17:28:02.517Z,7.77
2018-12-31T17:31:06.418Z,8.43
2018-12-31T17:34:10.306Z,7.77
2018-12-31T17:37:13.954Z,6.73
2018-12-31T17:40:17.854Z,7.83
2018-12-31T17:43:21.523Z,7.53
2018-12-31T17:46:25.404Z,8.73
2018-12-31T17:49:29.419Z,8.40
2018-12-31T17:52:33.635Z,6.70
2018-12-31T17:55:37.821Z,8.10
2018-12-31T17:58:41.481Z,8.57
2018-12-31T18:01:45.184Z,5.97
2018-12-31T18:04:49.086Z,7.73
2018-12-31T18:07:53.053Z,7.33
2018-12-31T18:10:56.740Z,6.73
2018-12-31T18:14:00.664Z,6.70
2018-12-31T18:17:04.321Z,6.30
2018-12-31T18:20:10.113Z,6.53
2018-12-31T18:23:13.777Z,7.30
2018-12-31T18:26:17.445Z,6.50
2018-12-31T18:29:21.100Z,6.63
2018-12-31T18:32:25.033Z,6.17
2018-12-31T18:35:28.747Z,8.13
2018-12-31T18:38:32.898Z,6.20
2018-12-31T18:41:36.563Z,7.00
2018-12-31T18:44:40.522Z,7.60
2018-12-31T18:47:44.458Z,6.23
2018-12-31T18:50:48.118Z,6.50
2018-12-31T18:53:52.721Z,6.23
2018-12-31T18:56:56.604Z,5.70
2018-12-31T19:00:00.586Z,6.30
2018-12-31T19:03:04.250Z,6.57
2018-12-31T19:06:11.726Z,7.93
2018-12-31T19:09:15.446Z,5.53
2018-12-31T19:12:19.360Z,6.70
2018-12-31T19:15:23.804Z,6.97
2018-12-31T19:18:27.770Z,6.63
2018-12-31T19:21:31.711Z,5.77
2018-12-31T19:24:35.352Z,7.00
2018-12-31T19:27:39.333Z,5.80
2018-12-31T19:30:42.977Z,5.33
2018-12-31T19:33:46.850Z,5.50
2018-12-31T19:36:50.480Z,6.33
2018-12-31T19:39:54.162Z,6.37
2018-12-31T19:42:58.249Z,8.67
2018-12-31T19:46:01.961Z,7.27
2018-12-31T19:49:05.619Z,5.97
2018-12-31T19:52:09.328Z,7.27
2018-12-31T19:55:13.259Z,6.73
2018-12-31T19:58:16.907Z,6.63
2018-12-31T20:01:20.796Z,5.87
2018-12-31T20:04:24.797Z,6.00
2018-12-31T20:07:28.519Z,5.37
2018-12-31T20:10:32.419Z,7.20
2018-12-31T20:13:36.360Z,5.80
2018-12-31T20:16:40.027Z,6.03
2018-12-31T20:19:43.812Z,5.80
2018-12-31T20:22:47.473Z,6.77
2018-12-31T20:25:51.423Z,5.57
2018-12-31T20:28:55.202Z,5.00
2018-12-31T20:31:58.859Z,5.97
2018-12-31T20:35:02.743Z,6.00
2018-12-31T20:38:07.051Z,6.63
2018-12-31T20:41:10.765Z,5.07
2018-12-31T20:44:14.670Z,4.63
2018-12-31T20:47:18.570Z,5.10
2018-12-31T20:50:22.504Z,5.80
2018-12-31T20:53:26.132Z,5.27
2018-12-31T20:56:29.831Z,4.50
2018-12-31T20:59:33.794Z,5.77
2018-12-31T21:02:37.492Z,5.50
2018-12-31T21:05:41.281Z,5.87
2018-12-31T21:08:45.605Z,4.87
2018-12-31T21:11:49.342Z,5.87
2018-12-31T21:14:56.198Z,5.50
2018-12-31T21:18:00.190Z,5.90
2018-12-31T21:21:04.208Z,5.40
2018-12-31T21:24:08.139Z,5.27
2018-12-31T21:27:12.897Z,5.30
2018-12-31T21:30:16.549Z,5.07
2018-12-31T21:33:20.232Z,5.40
2018-12-31T21:36:23.942Z,4.30
2018-12-31T21:39:27.916Z,5.23
2018-12-31T21:42:31.821Z,4.37
2018-12-31T21:45:35.584Z,4.50
2018-12-31T21:48:39.487Z,4.97
2018-12-31T21:51:43.281Z,5.00
2018-12-31T21:54:47.470Z,5.90
2018-12-31T21:57:51.232Z,5.67
2018-12-31T22:00:54.906Z,5.53
2018-12-31T22:03:58.555Z,5.13
2018-12-31T22:07:02.229Z,5.50
2018-12-31T22:10:06.348Z,5.77
2018-12-31T22:13:10.000Z,4.97
2018-12-31T22:16:13.650Z,5.17
2018-12-31T22:19:17.343Z,4.87
2018-12-31T22:22:21.486Z,4.13
2018-12-31T22:25:25.456Z,4.30
2018-12-31T22:28:29.366Z,4.90
2018-12-31T22:31:33.434Z,4.90
2018-12-31T22:34:37.403Z,4.47
2018-12-31T22:37:41.063Z,4.13
2018-12-31T22:40:44.827Z,5.33
2018-12-31T22:43:48.493Z,4.73
2018-12-31T22:46:52.402Z,4.63
2018-12-31T22:49:56.053Z,4.53
2018-12-31T22:52:59.746Z,5.93
2018-12-31T22:56:03.709Z,3.97
2018-12-31T22:59:07.638Z,4.87
2018-12-31T23:02:11.841Z,5.57
2018-12-31T23:05:16.929Z,5.17
2018-12-31T23:08:20.869Z,6.47
2018-12-31T23:11:24.791Z,7.00
2018-12-31T23:14:28.749Z,7.63
2018-12-31T23:17:32.471Z,8.97
2018-12-31T23:20:37.232Z,8.03
2018-12-31T23:23:40.877Z,8.53
2018-12-31T23:26:44.547Z,11.60
2018-12-31T23:29:48.203Z,11.40
2018-12-31T23:32:51.889Z,12.03
2018-12-31T23:35:56.189Z,11.27
2018-12-31T23:39:05.216Z,12.23
2018-12-31T23:42:05.932Z,13.87
2018-12-31T23:45:10.553Z,11.23
2018-12-31T23:48:14.424Z,13.33
2018-12-31T23:51:18.345Z,13.97
2018-12-31T23:54:22.031Z,13.27
2018-12-31T23:57:25.680Z,14.30
